sensor_id;sensor_type;location;lat;lon;timestamp;P1;durP1;ratioP1;P2;durP2;ratioP2
61685;SDS011;47592;45.904;8.978;2023-02-18T00:00:12;29.30;;;19.58;;
61685;SDS011;47592;45.904;8.978;2023-02-18T00:02:41;33.60;;;19.77;;
61685;SDS011;47592;45.904;8.978;2023-02-18T00:05:06;33.83;;;19.83;;
61685;SDS011;47592;45.904;8.978;2023-02-18T00:07:33;29.85;;;19.27;;
61685;SDS011;47592;45.904;8.978;2023-02-18T00:09:59;35.25;;;20.77;;
61685;SDS011;47592;45.904;8.978;2023-02-18T00:12:24;30.80;;;19.58;;
61685;SDS011;47592;45.904;8.978;2023-02-18T00:14:50;33.33;;;20.85;;
61685;SDS011;47592;45.904;8.978;2023-02-18T00:17:15;33.92;;;22.25;;
61685;SDS011;47592;45.904;8.978;2023-02-18T00:19:41;34.92;;;21.23;;
61685;SDS011;47592;45.904;8.978;2023-02-18T00:22:06;32.97;;;20.67;;
61685;SDS011;47592;45.904;8.978;2023-02-18T00:24:31;31.70;;;21.17;;
61685;SDS011;47592;45.904;8.978;2023-02-18T00:26:57;33.20;;;20.88;;
61685;SDS011;47592;45.904;8.978;2023-02-18T00:29:22;35.40;;;21.08;;
61685;SDS011;47592;45.904;8.978;2023-02-18T00:31:48;31.42;;;20.50;;
61685;SDS011;47592;45.904;8.978;2023-02-18T00:34:13;34.30;;;20.08;;
61685;SDS011;47592;45.904;8.978;2023-02-18T00:36:39;34.47;;;20.10;;
61685;SDS011;47592;45.904;8.978;2023-02-18T00:39:06;32.88;;;20.60;;
61685;SDS011;47592;45.904;8.978;2023-02-18T00:41:33;29.17;;;19.38;;
61685;SDS011;47592;45.904;8.978;2023-02-18T00:43:58;33.95;;;20.05;;
61685;SDS011;47592;45.904;8.978;2023-02-18T00:46:24;31.83;;;20.23;;
61685;SDS011;47592;45.904;8.978;2023-02-18T00:48:50;31.92;;;20.50;;
61685;SDS011;47592;45.904;8.978;2023-02-18T00:51:16;32.05;;;20.23;;
61685;SDS011;47592;45.904;8.978;2023-02-18T00:53:41;31.92;;;20.80;;
61685;SDS011;47592;45.904;8.978;2023-02-18T00:56:07;32.60;;;19.88;;
61685;SDS011;47592;45.904;8.978;2023-02-18T00:58:33;32.50;;;21.08;;
61685;SDS011;47592;45.904;8.978;2023-02-18T01:00:59;31.50;;;20.05;;
61685;SDS011;47592;45.904;8.978;2023-02-18T01:03:25;31.05;;;19.48;;
61685;SDS011;47592;45.904;8.978;2023-02-18T01:05:50;33.97;;;18.98;;
61685;SDS011;47592;45.904;8.978;2023-02-18T01:08:17;34.15;;;20.50;;
61685;SDS011;47592;45.904;8.978;2023-02-18T01:10:44;32.88;;;19.98;;
61685;SDS011;47592;45.904;8.978;2023-02-18T01:13:10;28.58;;;19.10;;
61685;SDS011;47592;45.904;8.978;2023-02-18T01:15:38;32.33;;;20.45;;
61685;SDS011;47592;45.904;8.978;2023-02-18T01:18:04;31.63;;;19.67;;
61685;SDS011;47592;45.904;8.978;2023-02-18T01:20:29;35.35;;;20.48;;
61685;SDS011;47592;45.904;8.978;2023-02-18T01:22:55;31.27;;;19.67;;
61685;SDS011;47592;45.904;8.978;2023-02-18T01:25:20;31.67;;;20.40;;
61685;SDS011;47592;45.904;8.978;2023-02-18T01:27:46;30.13;;;19.52;;
61685;SDS011;47592;45.904;8.978;2023-02-18T01:30:13;33.83;;;20.05;;
61685;SDS011;47592;45.904;8.978;2023-02-18T01:32:39;31.05;;;20.05;;
61685;SDS011;47592;45.904;8.978;2023-02-18T01:35:06;29.83;;;19.25;;
61685;SDS011;47592;45.904;8.978;2023-02-18T01:37:32;30.73;;;19.00;;
61685;SDS011;47592;45.904;8.978;2023-02-18T01:39:58;29.90;;;18.35;;
61685;SDS011;47592;45.904;8.978;2023-02-18T01:42:25;29.35;;;18.70;;
61685;SDS011;47592;45.904;8.978;2023-02-18T01:44:52;33.13;;;18.63;;
61685;SDS011;47592;45.904;8.978;2023-02-18T01:47:18;31.67;;;20.40;;
61685;SDS011;47592;45.904;8.978;2023-02-18T01:49:45;28.90;;;18.02;;
61685;SDS011;47592;45.904;8.978;2023-02-18T01:52:14;31.92;;;18.33;;
61685;SDS011;47592;45.904;8.978;2023-02-18T01:54:46;28.48;;;19.60;;
61685;SDS011;47592;45.904;8.978;2023-02-18T01:57:15;30.17;;;18.65;;
61685;SDS011;47592;45.904;8.978;2023-02-18T01:59:54;28.77;;;18.15;;
61685;SDS011;47592;45.904;8.978;2023-02-18T02:02:21;24.67;;;16.92;;
61685;SDS011;47592;45.904;8.978;2023-02-18T02:04:49;27.25;;;17.42;;
61685;SDS011;47592;45.904;8.978;2023-02-18T02:07:15;31.15;;;19.73;;
61685;SDS011;47592;45.904;8.978;2023-02-18T02:09:42;30.55;;;18.25;;
61685;SDS011;47592;45.904;8.978;2023-02-18T02:40:18;28.98;;;18.33;;
61685;SDS011;47592;45.904;8.978;2023-02-18T02:53:51;30.17;;;17.55;;
61685;SDS011;47592;45.904;8.978;2023-02-18T02:56:21;26.50;;;17.60;;
61685;SDS011;47592;45.904;8.978;2023-02-18T02:58:58;26.88;;;18.02;;
61685;SDS011;47592;45.904;8.978;2023-02-18T03:01:34;29.58;;;18.98;;
61685;SDS011;47592;45.904;8.978;2023-02-18T03:12:15;31.67;;;18.58;;
61685;SDS011;47592;45.904;8.978;2023-02-18T03:14:58;28.55;;;18.30;;
61685;SDS011;47592;45.904;8.978;2023-02-18T03:17:45;29.98;;;18.38;;
61685;SDS011;47592;45.904;8.978;2023-02-18T03:20:24;27.20;;;17.30;;
61685;SDS011;47592;45.904;8.978;2023-02-18T03:22:57;32.15;;;18.88;;
61685;SDS011;47592;45.904;8.978;2023-02-18T03:25:24;31.95;;;18.13;;
61685;SDS011;47592;45.904;8.978;2023-02-18T03:30:23;28.77;;;17.75;;
61685;SDS011;47592;45.904;8.978;2023-02-18T03:32:52;31.05;;;17.95;;
61685;SDS011;47592;45.904;8.978;2023-02-18T03:35:21;29.87;;;18.93;;
61685;SDS011;47592;45.904;8.978;2023-02-18T03:37:47;26.75;;;17.48;;
61685;SDS011;47592;45.904;8.978;2023-02-18T03:40:16;29.45;;;18.63;;
61685;SDS011;47592;45.904;8.978;2023-02-18T03:42:42;29.58;;;18.10;;
61685;SDS011;47592;45.904;8.978;2023-02-18T03:45:08;28.30;;;18.23;;
61685;SDS011;47592;45.904;8.978;2023-02-18T03:47:33;29.15;;;17.90;;
61685;SDS011;47592;45.904;8.978;2023-02-18T03:49:59;29.13;;;18.50;;
61685;SDS011;47592;45.904;8.978;2023-02-18T03:52:24;30.92;;;19.08;;
61685;SDS011;47592;45.904;8.978;2023-02-18T03:54:50;28.15;;;18.67;;
61685;SDS011;47592;45.904;8.978;2023-02-18T03:57:15;27.33;;;17.77;;
61685;SDS011;47592;45.904;8.978;2023-02-18T03:59:41;27.70;;;17.98;;
61685;SDS011;47592;45.904;8.978;2023-02-18T04:02:06;27.52;;;17.30;;
61685;SDS011;47592;45.904;8.978;2023-02-18T04:04:32;29.33;;;18.80;;
61685;SDS011;47592;45.904;8.978;2023-02-18T04:06:57;29.70;;;18.08;;
61685;SDS011;47592;45.904;8.978;2023-02-18T04:09:23;29.35;;;18.48;;
61685;SDS011;47592;45.904;8.978;2023-02-18T04:11:49;26.80;;;17.15;;
61685;SDS011;47592;45.904;8.978;2023-02-18T04:14:14;26.15;;;17.60;;
61685;SDS011;47592;45.904;8.978;2023-02-18T04:16:40;28.45;;;17.67;;
61685;SDS011;47592;45.904;8.978;2023-02-18T04:19:05;28.00;;;18.42;;
61685;SDS011;47592;45.904;8.978;2023-02-18T04:21:31;31.00;;;18.83;;
61685;SDS011;47592;45.904;8.978;2023-02-18T04:23:57;30.48;;;18.08;;
61685;SDS011;47592;45.904;8.978;2023-02-18T04:26:23;29.27;;;18.15;;
61685;SDS011;47592;45.904;8.978;2023-02-18T04:28:49;26.83;;;17.55;;
61685;SDS011;47592;45.904;8.978;2023-02-18T04:31:14;27.98;;;17.73;;
61685;SDS011;47592;45.904;8.978;2023-02-18T04:33:39;28.63;;;17.77;;
61685;SDS011;47592;45.904;8.978;2023-02-18T04:36:05;30.33;;;17.50;;
61685;SDS011;47592;45.904;8.978;2023-02-18T04:38:31;28.70;;;18.50;;
61685;SDS011;47592;45.904;8.978;2023-02-18T04:40:56;29.05;;;17.75;;
61685;SDS011;47592;45.904;8.978;2023-02-18T04:43:22;29.00;;;18.27;;
61685;SDS011;47592;45.904;8.978;2023-02-18T04:45:47;30.38;;;18.98;;
61685;SDS011;47592;45.904;8.978;2023-02-18T04:48:13;27.25;;;16.88;;
61685;SDS011;47592;45.904;8.978;2023-02-18T04:50:38;26.73;;;16.92;;
61685;SDS011;47592;45.904;8.978;2023-02-18T04:53:04;29.55;;;18.45;;
61685;SDS011;47592;45.904;8.978;2023-02-18T04:55:29;27.42;;;17.52;;
61685;SDS011;47592;45.904;8.978;2023-02-18T04:57:54;27.92;;;18.13;;
61685;SDS011;47592;45.904;8.978;2023-02-18T05:00:20;27.02;;;17.75;;
61685;SDS011;47592;45.904;8.978;2023-02-18T05:02:46;26.58;;;17.73;;
61685;SDS011;47592;45.904;8.978;2023-02-18T05:05:12;31.60;;;17.65;;
61685;SDS011;47592;45.904;8.978;2023-02-18T05:07:37;29.27;;;18.02;;
61685;SDS011;47592;45.904;8.978;2023-02-18T05:10:04;30.88;;;18.42;;
61685;SDS011;47592;45.904;8.978;2023-02-18T05:12:30;31.25;;;18.58;;
61685;SDS011;47592;45.904;8.978;2023-02-18T05:14:56;31.77;;;17.83;;
61685;SDS011;47592;45.904;8.978;2023-02-18T05:17:21;30.05;;;18.55;;
61685;SDS011;47592;45.904;8.978;2023-02-18T05:19:46;30.60;;;18.40;;
61685;SDS011;47592;45.904;8.978;2023-02-18T05:22:12;28.15;;;17.33;;
61685;SDS011;47592;45.904;8.978;2023-02-18T05:24:38;31.63;;;18.35;;
61685;SDS011;47592;45.904;8.978;2023-02-18T05:27:04;28.88;;;17.30;;
61685;SDS011;47592;45.904;8.978;2023-02-18T05:29:29;30.38;;;17.75;;
61685;SDS011;47592;45.904;8.978;2023-02-18T05:31:55;29.70;;;19.20;;
61685;SDS011;47592;45.904;8.978;2023-02-18T05:34:20;28.83;;;17.73;;
61685;SDS011;47592;45.904;8.978;2023-02-18T05:36:45;30.27;;;17.92;;
61685;SDS011;47592;45.904;8.978;2023-02-18T05:39:11;31.67;;;18.95;;
61685;SDS011;47592;45.904;8.978;2023-02-18T05:41:36;29.92;;;18.35;;
61685;SDS011;47592;45.904;8.978;2023-02-18T05:44:02;31.65;;;18.90;;
61685;SDS011;47592;45.904;8.978;2023-02-18T05:46:46;32.75;;;18.42;;
61685;SDS011;47592;45.904;8.978;2023-02-18T05:49:11;27.70;;;18.05;;
61685;SDS011;47592;45.904;8.978;2023-02-18T05:51:36;28.35;;;17.67;;
61685;SDS011;47592;45.904;8.978;2023-02-18T05:54:02;30.58;;;18.40;;
61685;SDS011;47592;45.904;8.978;2023-02-18T05:56:28;26.75;;;17.83;;
61685;SDS011;47592;45.904;8.978;2023-02-18T05:58:53;30.60;;;19.65;;
61685;SDS011;47592;45.904;8.978;2023-02-18T06:01:19;34.17;;;19.23;;
61685;SDS011;47592;45.904;8.978;2023-02-18T06:03:44;29.15;;;18.08;;
61685;SDS011;47592;45.904;8.978;2023-02-18T06:06:09;30.10;;;18.40;;
61685;SDS011;47592;45.904;8.978;2023-02-18T06:08:35;31.10;;;18.88;;
61685;SDS011;47592;45.904;8.978;2023-02-18T06:11:00;30.80;;;18.83;;
61685;SDS011;47592;45.904;8.978;2023-02-18T06:13:26;30.90;;;17.70;;
61685;SDS011;47592;45.904;8.978;2023-02-18T06:15:51;32.42;;;19.10;;
61685;SDS011;47592;45.904;8.978;2023-02-18T06:18:18;32.00;;;19.42;;
61685;SDS011;47592;45.904;8.978;2023-02-18T06:20:43;31.27;;;19.00;;
61685;SDS011;47592;45.904;8.978;2023-02-18T06:23:10;29.02;;;17.83;;
61685;SDS011;47592;45.904;8.978;2023-02-18T06:25:36;32.30;;;19.38;;
61685;SDS011;47592;45.904;8.978;2023-02-18T06:28:01;31.98;;;19.25;;
61685;SDS011;47592;45.904;8.978;2023-02-18T06:30:26;34.20;;;20.00;;
61685;SDS011;47592;45.904;8.978;2023-02-18T06:32:52;31.73;;;19.77;;
61685;SDS011;47592;45.904;8.978;2023-02-18T06:35:17;35.45;;;20.30;;
61685;SDS011;47592;45.904;8.978;2023-02-18T06:37:43;33.72;;;19.98;;
61685;SDS011;47592;45.904;8.978;2023-02-18T06:40:09;31.52;;;20.00;;
61685;SDS011;47592;45.904;8.978;2023-02-18T06:42:34;31.88;;;19.55;;
61685;SDS011;47592;45.904;8.978;2023-02-18T06:45:00;33.70;;;20.42;;
61685;SDS011;47592;45.904;8.978;2023-02-18T06:47:25;33.08;;;20.02;;
61685;SDS011;47592;45.904;8.978;2023-02-18T06:49:50;33.05;;;20.63;;
61685;SDS011;47592;45.904;8.978;2023-02-18T06:52:16;32.65;;;20.40;;
61685;SDS011;47592;45.904;8.978;2023-02-18T06:54:41;32.78;;;19.23;;
61685;SDS011;47592;45.904;8.978;2023-02-18T06:57:07;35.50;;;20.05;;
61685;SDS011;47592;45.904;8.978;2023-02-18T06:59:32;36.58;;;19.90;;
61685;SDS011;47592;45.904;8.978;2023-02-18T07:01:58;34.92;;;20.25;;
61685;SDS011;47592;45.904;8.978;2023-02-18T07:04:23;32.33;;;20.88;;
61685;SDS011;47592;45.904;8.978;2023-02-18T07:06:48;32.45;;;19.35;;
61685;SDS011;47592;45.904;8.978;2023-02-18T07:09:14;32.15;;;19.60;;
61685;SDS011;47592;45.904;8.978;2023-02-18T07:11:39;29.98;;;18.83;;
61685;SDS011;47592;45.904;8.978;2023-02-18T07:14:05;33.10;;;19.45;;
61685;SDS011;47592;45.904;8.978;2023-02-18T07:16:30;30.17;;;19.48;;
61685;SDS011;47592;45.904;8.978;2023-02-18T07:18:56;34.17;;;21.00;;
61685;SDS011;47592;45.904;8.978;2023-02-18T07:21:21;34.50;;;21.58;;
61685;SDS011;47592;45.904;8.978;2023-02-18T07:23:46;34.28;;;19.92;;
61685;SDS011;47592;45.904;8.978;2023-02-18T07:26:12;34.00;;;20.88;;
61685;SDS011;47592;45.904;8.978;2023-02-18T07:28:38;32.20;;;19.42;;
61685;SDS011;47592;45.904;8.978;2023-02-18T07:31:04;35.17;;;21.58;;
61685;SDS011;47592;45.904;8.978;2023-02-18T07:33:30;35.22;;;19.92;;
61685;SDS011;47592;45.904;8.978;2023-02-18T07:35:57;38.95;;;21.13;;
61685;SDS011;47592;45.904;8.978;2023-02-18T07:38:23;36.88;;;21.92;;
61685;SDS011;47592;45.904;8.978;2023-02-18T07:40:49;35.00;;;21.45;;
61685;SDS011;47592;45.904;8.978;2023-02-18T07:43:15;36.20;;;21.73;;
61685;SDS011;47592;45.904;8.978;2023-02-18T07:45:41;32.08;;;20.25;;
61685;SDS011;47592;45.904;8.978;2023-02-18T07:48:06;33.92;;;20.75;;
61685;SDS011;47592;45.904;8.978;2023-02-18T07:50:32;38.55;;;22.45;;
61685;SDS011;47592;45.904;8.978;2023-02-18T07:53:03;41.20;;;22.27;;
61685;SDS011;47592;45.904;8.978;2023-02-18T07:55:36;33.15;;;22.27;;
61685;SDS011;47592;45.904;8.978;2023-02-18T07:58:17;35.85;;;21.88;;
61685;SDS011;47592;45.904;8.978;2023-02-18T08:00:45;37.85;;;22.85;;
61685;SDS011;47592;45.904;8.978;2023-02-18T08:03:12;37.42;;;23.13;;
61685;SDS011;47592;45.904;8.978;2023-02-18T08:05:38;38.78;;;23.63;;
61685;SDS011;47592;45.904;8.978;2023-02-18T08:08:04;38.58;;;22.42;;
61685;SDS011;47592;45.904;8.978;2023-02-18T08:10:29;36.88;;;21.95;;
61685;SDS011;47592;45.904;8.978;2023-02-18T08:12:54;35.90;;;22.52;;
61685;SDS011;47592;45.904;8.978;2023-02-18T08:15:20;36.95;;;22.35;;
61685;SDS011;47592;45.904;8.978;2023-02-18T08:17:45;36.05;;;23.33;;
61685;SDS011;47592;45.904;8.978;2023-02-18T08:20:12;34.60;;;21.67;;
61685;SDS011;47592;45.904;8.978;2023-02-18T08:25:59;34.28;;;22.33;;
61685;SDS011;47592;45.904;8.978;2023-02-18T08:28:24;38.63;;;23.30;;
61685;SDS011;47592;45.904;8.978;2023-02-18T08:30:51;38.10;;;23.73;;
61685;SDS011;47592;45.904;8.978;2023-02-18T08:33:18;40.85;;;24.95;;
61685;SDS011;47592;45.904;8.978;2023-02-18T08:35:44;37.90;;;22.95;;
61685;SDS011;47592;45.904;8.978;2023-02-18T08:38:10;38.38;;;23.65;;
61685;SDS011;47592;45.904;8.978;2023-02-18T08:40:35;41.90;;;24.60;;
61685;SDS011;47592;45.904;8.978;2023-02-18T08:43:01;43.97;;;26.58;;
61685;SDS011;47592;45.904;8.978;2023-02-18T08:45:26;39.47;;;24.33;;
61685;SDS011;47592;45.904;8.978;2023-02-18T08:47:52;40.75;;;25.70;;
61685;SDS011;47592;45.904;8.978;2023-02-18T08:50:17;40.58;;;24.10;;
61685;SDS011;47592;45.904;8.978;2023-02-18T08:52:45;41.85;;;24.52;;
61685;SDS011;47592;45.904;8.978;2023-02-18T08:55:11;39.20;;;24.42;;
61685;SDS011;47592;45.904;8.978;2023-02-18T08:57:36;39.85;;;23.95;;
61685;SDS011;47592;45.904;8.978;2023-02-18T09:00:02;40.55;;;25.17;;
61685;SDS011;47592;45.904;8.978;2023-02-18T09:02:27;42.25;;;25.27;;
61685;SDS011;47592;45.904;8.978;2023-02-18T09:04:53;43.63;;;26.60;;
61685;SDS011;47592;45.904;8.978;2023-02-18T09:07:18;43.20;;;27.13;;
61685;SDS011;47592;45.904;8.978;2023-02-18T09:09:44;44.30;;;27.42;;
61685;SDS011;47592;45.904;8.978;2023-02-18T09:12:09;45.85;;;27.75;;
61685;SDS011;47592;45.904;8.978;2023-02-18T09:14:35;43.70;;;27.30;;
61685;SDS011;47592;45.904;8.978;2023-02-18T09:17:00;42.45;;;26.33;;
61685;SDS011;47592;45.904;8.978;2023-02-18T09:19:25;43.67;;;28.00;;
61685;SDS011;47592;45.904;8.978;2023-02-18T09:21:51;44.78;;;27.42;;
61685;SDS011;47592;45.904;8.978;2023-02-18T09:24:17;45.40;;;27.50;;
61685;SDS011;47592;45.904;8.978;2023-02-18T09:26:43;42.17;;;26.60;;
61685;SDS011;47592;45.904;8.978;2023-02-18T09:29:09;45.92;;;27.55;;
61685;SDS011;47592;45.904;8.978;2023-02-18T09:31:34;44.38;;;27.67;;
61685;SDS011;47592;45.904;8.978;2023-02-18T09:34:02;43.55;;;27.25;;
61685;SDS011;47592;45.904;8.978;2023-02-18T09:36:27;44.03;;;26.85;;
61685;SDS011;47592;45.904;8.978;2023-02-18T09:38:53;45.90;;;27.88;;
61685;SDS011;47592;45.904;8.978;2023-02-18T09:41:38;46.47;;;27.77;;
61685;SDS011;47592;45.904;8.978;2023-02-18T09:44:22;45.15;;;28.10;;
61685;SDS011;47592;45.904;8.978;2023-02-18T09:49:24;48.60;;;29.65;;
61685;SDS011;47592;45.904;8.978;2023-02-18T09:51:51;47.15;;;28.27;;
61685;SDS011;47592;45.904;8.978;2023-02-18T09:54:18;41.17;;;28.40;;
61685;SDS011;47592;45.904;8.978;2023-02-18T09:56:44;46.03;;;27.90;;
61685;SDS011;47592;45.904;8.978;2023-02-18T09:59:13;42.80;;;26.42;;
61685;SDS011;47592;45.904;8.978;2023-02-18T10:01:43;41.75;;;27.05;;
61685;SDS011;47592;45.904;8.978;2023-02-18T10:04:18;40.83;;;26.15;;
61685;SDS011;47592;45.904;8.978;2023-02-18T10:06:48;44.22;;;27.85;;
61685;SDS011;47592;45.904;8.978;2023-02-18T10:09:18;44.72;;;27.98;;
61685;SDS011;47592;45.904;8.978;2023-02-18T10:11:54;42.70;;;26.90;;
61685;SDS011;47592;45.904;8.978;2023-02-18T10:14:21;45.15;;;26.38;;
61685;SDS011;47592;45.904;8.978;2023-02-18T10:16:47;44.10;;;26.70;;
61685;SDS011;47592;45.904;8.978;2023-02-18T10:21:56;43.90;;;24.98;;
61685;SDS011;47592;45.904;8.978;2023-02-18T10:26:57;41.75;;;25.63;;
61685;SDS011;47592;45.904;8.978;2023-02-18T10:29:23;43.05;;;26.02;;
61685;SDS011;47592;45.904;8.978;2023-02-18T10:34:45;37.97;;;23.13;;
61685;SDS011;47592;45.904;8.978;2023-02-18T10:51:39;38.90;;;23.17;;
61685;SDS011;47592;45.904;8.978;2023-02-18T10:54:09;40.63;;;25.05;;
61685;SDS011;47592;45.904;8.978;2023-02-18T10:56:38;39.95;;;24.77;;
61685;SDS011;47592;45.904;8.978;2023-02-18T10:59:13;45.92;;;25.98;;
61685;SDS011;47592;45.904;8.978;2023-02-18T11:04:19;38.13;;;23.70;;
61685;SDS011;47592;45.904;8.978;2023-02-18T11:06:46;38.22;;;24.05;;
61685;SDS011;47592;45.904;8.978;2023-02-18T11:15:07;38.45;;;23.63;;
61685;SDS011;47592;45.904;8.978;2023-02-18T11:17:41;40.17;;;24.30;;
61685;SDS011;47592;45.904;8.978;2023-02-18T11:20:54;39.47;;;25.45;;
61685;SDS011;47592;45.904;8.978;2023-02-18T11:25:24;38.85;;;23.27;;
61685;SDS011;47592;45.904;8.978;2023-02-18T11:27:55;35.15;;;22.23;;
61685;SDS011;47592;45.904;8.978;2023-02-18T11:33:01;39.30;;;23.95;;
61685;SDS011;47592;45.904;8.978;2023-02-18T11:35:29;36.03;;;23.90;;
61685;SDS011;47592;45.904;8.978;2023-02-18T11:37:56;36.92;;;23.75;;
61685;SDS011;47592;45.904;8.978;2023-02-18T11:40:33;37.42;;;24.48;;
61685;SDS011;47592;45.904;8.978;2023-02-18T11:43:33;40.72;;;25.08;;
61685;SDS011;47592;45.904;8.978;2023-02-18T11:46:06;41.30;;;24.75;;
61685;SDS011;47592;45.904;8.978;2023-02-18T11:48:33;37.70;;;24.73;;
61685;SDS011;47592;45.904;8.978;2023-02-18T11:50:59;47.15;;;28.25;;
61685;SDS011;47592;45.904;8.978;2023-02-18T11:53:30;43.55;;;26.65;;
61685;SDS011;47592;45.904;8.978;2023-02-18T11:55:58;44.83;;;26.50;;
61685;SDS011;47592;45.904;8.978;2023-02-18T11:58:26;43.25;;;27.35;;
61685;SDS011;47592;45.904;8.978;2023-02-18T12:00:53;41.17;;;25.52;;
61685;SDS011;47592;45.904;8.978;2023-02-18T12:05:52;41.38;;;25.70;;
61685;SDS011;47592;45.904;8.978;2023-02-18T12:08:25;38.50;;;24.48;;
61685;SDS011;47592;45.904;8.978;2023-02-18T12:10:53;39.55;;;24.10;;
61685;SDS011;47592;45.904;8.978;2023-02-18T12:13:37;36.92;;;24.10;;
61685;SDS011;47592;45.904;8.978;2023-02-18T12:25:00;33.55;;;20.90;;
61685;SDS011;47592;45.904;8.978;2023-02-18T12:36:09;30.65;;;19.90;;
61685;SDS011;47592;45.904;8.978;2023-02-18T12:46:44;26.70;;;18.45;;
61685;SDS011;47592;45.904;8.978;2023-02-18T12:58:04;28.55;;;18.70;;
61685;SDS011;47592;45.904;8.978;2023-02-18T13:06:26;26.67;;;17.80;;
61685;SDS011;47592;45.904;8.978;2023-02-18T13:11:46;25.40;;;17.13;;
61685;SDS011;47592;45.904;8.978;2023-02-18T13:14:26;24.27;;;16.17;;
61685;SDS011;47592;45.904;8.978;2023-02-18T13:16:54;26.90;;;17.40;;
61685;SDS011;47592;45.904;8.978;2023-02-18T13:19:28;25.58;;;16.85;;
61685;SDS011;47592;45.904;8.978;2023-02-18T13:21:58;25.27;;;17.38;;
61685;SDS011;47592;45.904;8.978;2023-02-18T13:24:33;24.67;;;16.90;;
61685;SDS011;47592;45.904;8.978;2023-02-18T13:41:44;24.63;;;16.73;;
61685;SDS011;47592;45.904;8.978;2023-02-18T13:46:47;24.27;;;16.80;;
61685;SDS011;47592;45.904;8.978;2023-02-18T13:49:19;26.00;;;17.15;;
61685;SDS011;47592;45.904;8.978;2023-02-18T13:51:47;24.52;;;16.15;;
61685;SDS011;47592;45.904;8.978;2023-02-18T13:56:57;23.58;;;15.27;;
61685;SDS011;47592;45.904;8.978;2023-02-18T13:59:34;22.52;;;15.70;;
61685;SDS011;47592;45.904;8.978;2023-02-18T14:02:07;22.13;;;15.77;;
61685;SDS011;47592;45.904;8.978;2023-02-18T14:10:00;22.08;;;15.20;;
61685;SDS011;47592;45.904;8.978;2023-02-18T14:25:48;21.65;;;12.98;;
61685;SDS011;47592;45.904;8.978;2023-02-18T14:28:43;18.83;;;13.10;;
61685;SDS011;47592;45.904;8.978;2023-02-18T14:33:47;18.92;;;11.80;;
61685;SDS011;47592;45.904;8.978;2023-02-18T14:47:46;17.83;;;11.70;;
61685;SDS011;47592;45.904;8.978;2023-02-18T14:50:15;15.60;;;10.70;;
61685;SDS011;47592;45.904;8.978;2023-02-18T14:52:43;16.58;;;11.10;;
61685;SDS011;47592;45.904;8.978;2023-02-18T14:55:15;19.52;;;11.15;;
61685;SDS011;47592;45.904;8.978;2023-02-18T14:57:49;21.50;;;11.40;;
61685;SDS011;47592;45.904;8.978;2023-02-18T15:00:22;17.67;;;11.20;;
61685;SDS011;47592;45.904;8.978;2023-02-18T15:02:53;17.45;;;11.80;;
61685;SDS011;47592;45.904;8.978;2023-02-18T15:05:21;16.67;;;11.85;;
61685;SDS011;47592;45.904;8.978;2023-02-18T15:07:58;19.65;;;12.40;;
61685;SDS011;47592;45.904;8.978;2023-02-18T15:13:01;16.83;;;11.82;;
61685;SDS011;47592;45.904;8.978;2023-02-18T15:15:26;15.70;;;11.50;;
61685;SDS011;47592;45.904;8.978;2023-02-18T15:17:52;18.52;;;11.90;;
61685;SDS011;47592;45.904;8.978;2023-02-18T15:20:17;15.10;;;10.50;;
61685;SDS011;47592;45.904;8.978;2023-02-18T15:22:43;16.42;;;10.57;;
61685;SDS011;47592;45.904;8.978;2023-02-18T15:25:12;16.80;;;11.30;;
61685;SDS011;47592;45.904;8.978;2023-02-18T15:27:39;20.08;;;12.07;;
61685;SDS011;47592;45.904;8.978;2023-02-18T15:32:36;19.88;;;11.70;;
61685;SDS011;47592;45.904;8.978;2023-02-18T15:35:11;15.32;;;10.95;;
61685;SDS011;47592;45.904;8.978;2023-02-18T15:37:42;17.45;;;11.48;;
61685;SDS011;47592;45.904;8.978;2023-02-18T15:40:15;16.35;;;11.80;;
61685;SDS011;47592;45.904;8.978;2023-02-18T15:42:41;17.27;;;11.65;;
61685;SDS011;47592;45.904;8.978;2023-02-18T15:47:44;18.58;;;12.10;;
61685;SDS011;47592;45.904;8.978;2023-02-18T15:50:19;20.75;;;12.32;;
61685;SDS011;47592;45.904;8.978;2023-02-18T15:52:47;19.10;;;12.15;;
61685;SDS011;47592;45.904;8.978;2023-02-18T15:55:33;17.38;;;11.93;;
61685;SDS011;47592;45.904;8.978;2023-02-18T15:58:04;17.52;;;12.02;;
61685;SDS011;47592;45.904;8.978;2023-02-18T16:00:40;19.60;;;12.50;;
61685;SDS011;47592;45.904;8.978;2023-02-18T16:03:14;18.52;;;12.90;;
61685;SDS011;47592;45.904;8.978;2023-02-18T16:05:41;18.00;;;11.50;;
61685;SDS011;47592;45.904;8.978;2023-02-18T16:10:58;16.77;;;12.02;;
61685;SDS011;47592;45.904;8.978;2023-02-18T16:13:25;18.10;;;12.00;;
61685;SDS011;47592;45.904;8.978;2023-02-18T16:15:51;17.25;;;11.63;;
61685;SDS011;47592;45.904;8.978;2023-02-18T16:18:21;16.55;;;12.07;;
61685;SDS011;47592;45.904;8.978;2023-02-18T16:20:56;18.48;;;12.05;;
61685;SDS011;47592;45.904;8.978;2023-02-18T16:23:43;16.48;;;11.02;;
61685;SDS011;47592;45.904;8.978;2023-02-18T16:26:11;15.45;;;11.38;;
61685;SDS011;47592;45.904;8.978;2023-02-18T16:28:48;15.98;;;11.93;;
61685;SDS011;47592;45.904;8.978;2023-02-18T16:31:14;18.80;;;11.80;;
61685;SDS011;47592;45.904;8.978;2023-02-18T16:33:41;17.67;;;11.68;;
61685;SDS011;47592;45.904;8.978;2023-02-18T16:36:09;17.05;;;11.48;;
61685;SDS011;47592;45.904;8.978;2023-02-18T16:38:39;18.38;;;11.52;;
61685;SDS011;47592;45.904;8.978;2023-02-18T16:41:04;21.77;;;11.73;;
61685;SDS011;47592;45.904;8.978;2023-02-18T16:43:30;17.25;;;10.60;;
61685;SDS011;47592;45.904;8.978;2023-02-18T16:45:57;17.40;;;10.85;;
61685;SDS011;47592;45.904;8.978;2023-02-18T16:48:30;16.17;;;10.48;;
61685;SDS011;47592;45.904;8.978;2023-02-18T16:50:56;17.25;;;11.25;;
61685;SDS011;47592;45.904;8.978;2023-02-18T16:53:24;19.40;;;11.07;;
61685;SDS011;47592;45.904;8.978;2023-02-18T16:55:49;15.73;;;10.95;;
61685;SDS011;47592;45.904;8.978;2023-02-18T16:58:15;18.90;;;11.52;;
61685;SDS011;47592;45.904;8.978;2023-02-18T17:00:41;16.65;;;11.38;;
61685;SDS011;47592;45.904;8.978;2023-02-18T17:03:08;17.42;;;11.75;;
61685;SDS011;47592;45.904;8.978;2023-02-18T17:05:34;17.10;;;11.48;;
61685;SDS011;47592;45.904;8.978;2023-02-18T17:10:50;18.33;;;11.52;;
61685;SDS011;47592;45.904;8.978;2023-02-18T17:13:24;20.63;;;11.48;;
61685;SDS011;47592;45.904;8.978;2023-02-18T17:15:52;16.70;;;10.93;;
61685;SDS011;47592;45.904;8.978;2023-02-18T17:18:18;17.33;;;11.68;;
61685;SDS011;47592;45.904;8.978;2023-02-18T17:20:44;17.52;;;11.35;;
61685;SDS011;47592;45.904;8.978;2023-02-18T17:23:15;20.10;;;11.85;;
61685;SDS011;47592;45.904;8.978;2023-02-18T17:25:45;17.67;;;12.10;;
61685;SDS011;47592;45.904;8.978;2023-02-18T17:28:12;21.77;;;12.13;;
61685;SDS011;47592;45.904;8.978;2023-02-18T17:30:39;18.67;;;12.32;;
61685;SDS011;47592;45.904;8.978;2023-02-18T17:33:05;19.33;;;12.10;;
61685;SDS011;47592;45.904;8.978;2023-02-18T17:35:31;18.85;;;12.00;;
61685;SDS011;47592;45.904;8.978;2023-02-18T17:37:56;18.95;;;12.65;;
61685;SDS011;47592;45.904;8.978;2023-02-18T17:40:23;18.45;;;12.32;;
61685;SDS011;47592;45.904;8.978;2023-02-18T17:42:49;22.98;;;12.38;;
61685;SDS011;47592;45.904;8.978;2023-02-18T17:48:00;19.45;;;12.57;;
61685;SDS011;47592;45.904;8.978;2023-02-18T17:50:26;18.65;;;12.38;;